sensor_id;sensor_type;location;lat;lon;timestamp;temperature;humidity
431;DHT22;202;48.764;9.172;2023-06-01T00:05:37;19.40;24.30
431;DHT22;202;48.764;9.172;2023-06-01T00:08:04;19.40;24.50
431;DHT22;202;48.764;9.172;2023-06-01T00:10:31;19.40;25.00
431;DHT22;202;48.764;9.172;2023-06-01T00:12:58;19.40;24.60
431;DHT22;202;48.764;9.172;2023-06-01T00:15:25;19.30;24.60
431;DHT22;202;48.764;9.172;2023-06-01T00:17:52;19.30;24.50
431;DHT22;202;48.764;9.172;2023-06-01T00:20:21;19.20;24.40
431;DHT22;202;48.764;9.172;2023-06-01T00:22:51;19.20;24.70
431;DHT22;202;48.764;9.172;2023-06-01T00:25:19;19.20;24.60
431;DHT22;202;48.764;9.172;2023-06-01T00:27:45;19.20;25.10
431;DHT22;202;48.764;9.172;2023-06-01T00:30:13;19.10;25.20
431;DHT22;202;48.764;9.172;2023-06-01T00:32:40;19.10;25.30
431;DHT22;202;48.764;9.172;2023-06-01T00:35:07;19.00;25.30
431;DHT22;202;48.764;9.172;2023-06-01T00:37:34;19.00;24.60
431;DHT22;202;48.764;9.172;2023-06-01T00:40:02;19.10;24.80
431;DHT22;202;48.764;9.172;2023-06-01T00:42:29;19.00;24.90
431;DHT22;202;48.764;9.172;2023-06-01T00:44:56;19.00;24.80
431;DHT22;202;48.764;9.172;2023-06-01T00:47:24;18.90;25.00
431;DHT22;202;48.764;9.172;2023-06-01T00:49:51;18.90;25.50
431;DHT22;202;48.764;9.172;2023-06-01T00:52:18;18.80;25.60
431;DHT22;202;48.764;9.172;2023-06-01T00:54:47;18.80;26.20
431;DHT22;202;48.764;9.172;2023-06-01T00:57:15;18.90;24.90
431;DHT22;202;48.764;9.172;2023-06-01T00:59:42;18.80;25.60
431;DHT22;202;48.764;9.172;2023-06-01T01:02:10;18.80;25.40
431;DHT22;202;48.764;9.172;2023-06-01T01:04:40;18.80;25.30
431;DHT22;202;48.764;9.172;2023-06-01T01:07:13;18.80;25.40
431;DHT22;202;48.764;9.172;2023-06-01T01:09:50;18.80;25.40
431;DHT22;202;48.764;9.172;2023-06-01T01:12:24;18.80;24.90
431;DHT22;202;48.764;9.172;2023-06-01T01:14:58;18.90;25.10
431;DHT22;202;48.764;9.172;2023-06-01T01:17:30;18.80;25.40
431;DHT22;202;48.764;9.172;2023-06-01T01:20:02;18.80;26.00
431;DHT22;202;48.764;9.172;2023-06-01T01:22:47;18.70;25.60
431;DHT22;202;48.764;9.172;2023-06-01T01:28:38;18.70;25.80
431;DHT22;202;48.764;9.172;2023-06-01T01:31:09;18.60;25.60
431;DHT22;202;48.764;9.172;2023-06-01T01:33:36;18.60;25.40
431;DHT22;202;48.764;9.172;2023-06-01T01:36:04;18.60;25.70
431;DHT22;202;48.764;9.172;2023-06-01T01:38:33;18.60;25.70
431;DHT22;202;48.764;9.172;2023-06-01T01:41:01;18.60;25.90
431;DHT22;202;48.764;9.172;2023-06-01T01:43:29;18.50;25.80
431;DHT22;202;48.764;9.172;2023-06-01T01:46:03;18.40;26.00
431;DHT22;202;48.764;9.172;2023-06-01T01:48:37;18.40;25.80
431;DHT22;202;48.764;9.172;2023-06-01T01:51:10;18.30;26.00
431;DHT22;202;48.764;9.172;2023-06-01T01:53:39;18.30;26.00
431;DHT22;202;48.764;9.172;2023-06-01T01:56:08;18.30;25.80
431;DHT22;202;48.764;9.172;2023-06-01T01:58:35;18.30;25.80
431;DHT22;202;48.764;9.172;2023-06-01T02:01:04;18.20;26.30
431;DHT22;202;48.764;9.172;2023-06-01T02:03:31;18.20;26.30
431;DHT22;202;48.764;9.172;2023-06-01T02:05:58;18.20;26.40
431;DHT22;202;48.764;9.172;2023-06-01T02:08:25;18.10;26.60
431;DHT22;202;48.764;9.172;2023-06-01T02:10:52;18.10;26.70
431;DHT22;202;48.764;9.172;2023-06-01T02:13:18;18.10;27.20
431;DHT22;202;48.764;9.172;2023-06-01T02:15:45;18.20;26.70
431;DHT22;202;48.764;9.172;2023-06-01T02:18:14;18.10;26.50
431;DHT22;202;48.764;9.172;2023-06-01T02:20:43;18.10;26.60
431;DHT22;202;48.764;9.172;2023-06-01T02:23:10;18.00;26.90
431;DHT22;202;48.764;9.172;2023-06-01T02:25:37;18.00;27.20
431;DHT22;202;48.764;9.172;2023-06-01T02:28:04;18.00;27.10
431;DHT22;202;48.764;9.172;2023-06-01T02:30:32;18.00;27.30
431;DHT22;202;48.764;9.172;2023-06-01T02:32:59;18.00;27.50
431;DHT22;202;48.764;9.172;2023-06-01T02:35:28;18.00;27.80
431;DHT22;202;48.764;9.172;2023-06-01T02:37:54;18.10;28.20
431;DHT22;202;48.764;9.172;2023-06-01T02:40:22;18.00;28.00
431;DHT22;202;48.764;9.172;2023-06-01T02:42:49;18.00;28.30
431;DHT22;202;48.764;9.172;2023-06-01T02:45:16;17.90;28.30
431;DHT22;202;48.764;9.172;2023-06-01T02:47:43;17.80;28.40
431;DHT22;202;48.764;9.172;2023-06-01T02:50:10;17.70;28.20
431;DHT22;202;48.764;9.172;2023-06-01T02:52:39;17.60;28.30
431;DHT22;202;48.764;9.172;2023-06-01T02:55:07;17.50;27.90
431;DHT22;202;48.764;9.172;2023-06-01T02:57:34;17.60;28.10
431;DHT22;202;48.764;9.172;2023-06-01T03:00:01;17.60;28.40
431;DHT22;202;48.764;9.172;2023-06-01T03:02:29;17.50;28.50
431;DHT22;202;48.764;9.172;2023-06-01T03:04:56;17.60;28.60
431;DHT22;202;48.764;9.172;2023-06-01T03:07:23;17.50;28.90
431;DHT22;202;48.764;9.172;2023-06-01T03:09:52;17.50;28.90
431;DHT22;202;48.764;9.172;2023-06-01T03:12:18;17.40;28.60
431;DHT22;202;48.764;9.172;2023-06-01T03:14:45;17.50;28.50
431;DHT22;202;48.764;9.172;2023-06-01T03:17:12;17.40;28.80
431;DHT22;202;48.764;9.172;2023-06-01T03:19:39;17.40;29.10
431;DHT22;202;48.764;9.172;2023-06-01T03:22:06;17.40;29.10
431;DHT22;202;48.764;9.172;2023-06-01T03:24:33;17.40;28.90
431;DHT22;202;48.764;9.172;2023-06-01T03:27:04;17.30;28.80
431;DHT22;202;48.764;9.172;2023-06-01T03:29:31;17.30;29.20
431;DHT22;202;48.764;9.172;2023-06-01T03:31:57;17.30;29.10
431;DHT22;202;48.764;9.172;2023-06-01T03:34:25;17.30;29.30
431;DHT22;202;48.764;9.172;2023-06-01T03:36:52;17.20;29.10
431;DHT22;202;48.764;9.172;2023-06-01T03:39:19;17.20;29.20
431;DHT22;202;48.764;9.172;2023-06-01T03:41:46;17.20;29.20
431;DHT22;202;48.764;9.172;2023-06-01T03:44:14;17.20;29.40
431;DHT22;202;48.764;9.172;2023-06-01T03:46:41;17.10;29.50
431;DHT22;202;48.764;9.172;2023-06-01T03:49:08;17.20;29.80
431;DHT22;202;48.764;9.172;2023-06-01T03:51:35;17.00;29.90
431;DHT22;202;48.764;9.172;2023-06-01T03:54:02;17.10;29.90
431;DHT22;202;48.764;9.172;2023-06-01T03:56:29;17.10;29.90
431;DHT22;202;48.764;9.172;2023-06-01T03:58:56;17.20;29.50
431;DHT22;202;48.764;9.172;2023-06-01T04:01:24;17.30;30.00
431;DHT22;202;48.764;9.172;2023-06-01T04:03:54;17.20;30.00
431;DHT22;202;48.764;9.172;2023-06-01T04:06:22;17.10;29.90
431;DHT22;202;48.764;9.172;2023-06-01T04:08:49;17.10;29.90
431;DHT22;202;48.764;9.172;2023-06-01T04:11:21;17.10;30.70
431;DHT22;202;48.764;9.172;2023-06-01T04:13:48;17.10;30.20
431;DHT22;202;48.764;9.172;2023-06-01T04:16:15;17.10;30.70
431;DHT22;202;48.764;9.172;2023-06-01T04:18:43;17.10;30.70
431;DHT22;202;48.764;9.172;2023-06-01T04:21:10;17.10;31.10
431;DHT22;202;48.764;9.172;2023-06-01T04:23:37;17.20;31.10
431;DHT22;202;48.764;9.172;2023-06-01T04:26:04;17.20;31.80
431;DHT22;202;48.764;9.172;2023-06-01T04:28:31;17.30;30.50
431;DHT22;202;48.764;9.172;2023-06-01T04:30:59;17.20;30.00
431;DHT22;202;48.764;9.172;2023-06-01T04:33:27;17.20;30.00
431;DHT22;202;48.764;9.172;2023-06-01T04:35:56;17.20;30.00
431;DHT22;202;48.764;9.172;2023-06-01T04:38:22;17.30;30.00
431;DHT22;202;48.764;9.172;2023-06-01T04:40:50;17.40;30.10
431;DHT22;202;48.764;9.172;2023-06-01T04:43:19;17.30;30.10
431;DHT22;202;48.764;9.172;2023-06-01T04:45:46;17.30;29.80
431;DHT22;202;48.764;9.172;2023-06-01T04:48:13;17.40;29.90
431;DHT22;202;48.764;9.172;2023-06-01T04:50:42;17.40;30.10
431;DHT22;202;48.764;9.172;2023-06-01T04:53:11;17.40;30.10
431;DHT22;202;48.764;9.172;2023-06-01T04:55:38;17.40;30.10
431;DHT22;202;48.764;9.172;2023-06-01T04:58:05;17.50;30.90
431;DHT22;202;48.764;9.172;2023-06-01T05:00:32;17.60;29.70
431;DHT22;202;48.764;9.172;2023-06-01T05:02:59;17.60;30.30
431;DHT22;202;48.764;9.172;2023-06-01T05:05:28;17.70;29.50
431;DHT22;202;48.764;9.172;2023-06-01T05:07:54;17.80;29.70
431;DHT22;202;48.764;9.172;2023-06-01T05:10:23;17.90;30.00
431;DHT22;202;48.764;9.172;2023-06-01T05:12:50;18.00;29.50
431;DHT22;202;48.764;9.172;2023-06-01T05:15:17;18.10;29.90
431;DHT22;202;48.764;9.172;2023-06-01T05:17:44;18.10;29.20
431;DHT22;202;48.764;9.172;2023-06-01T05:20:12;18.10;30.70
431;DHT22;202;48.764;9.172;2023-06-01T05:22:39;18.10;30.00
431;DHT22;202;48.764;9.172;2023-06-01T05:25:07;18.20;29.80
431;DHT22;202;48.764;9.172;2023-06-01T05:27:35;18.20;29.10
431;DHT22;202;48.764;9.172;2023-06-01T05:30:03;18.10;29.50
431;DHT22;202;48.764;9.172;2023-06-01T05:32:31;18.20;29.40
431;DHT22;202;48.764;9.172;2023-06-01T05:34:58;18.30;29.40
431;DHT22;202;48.764;9.172;2023-06-01T05:37:24;18.40;29.40
431;DHT22;202;48.764;9.172;2023-06-01T05:39:51;18.50;29.50
431;DHT22;202;48.764;9.172;2023-06-01T05:42:19;18.70;27.90
431;DHT22;202;48.764;9.172;2023-06-01T05:44:47;18.60;27.90
431;DHT22;202;48.764;9.172;2023-06-01T05:47:14;18.70;28.60
431;DHT22;202;48.764;9.172;2023-06-01T05:49:41;18.80;28.70
431;DHT22;202;48.764;9.172;2023-06-01T05:52:09;18.90;28.10
431;DHT22;202;48.764;9.172;2023-06-01T05:54:39;19.00;28.30
431;DHT22;202;48.764;9.172;2023-06-01T05:57:07;19.10;27.00
431;DHT22;202;48.764;9.172;2023-06-01T05:59:34;19.20;27.30
431;DHT22;202;48.764;9.172;2023-06-01T06:02:03;19.30;27.30
431;DHT22;202;48.764;9.172;2023-06-01T06:07:49;19.40;27.10
431;DHT22;202;48.764;9.172;2023-06-01T06:11:21;19.50;28.60
431;DHT22;202;48.764;9.172;2023-06-01T06:15:30;19.60;27.60
431;DHT22;202;48.764;9.172;2023-06-01T06:21:06;19.90;27.00
431;DHT22;202;48.764;9.172;2023-06-01T06:23:59;20.00;26.70
431;DHT22;202;48.764;9.172;2023-06-01T06:26:44;20.20;26.60
431;DHT22;202;48.764;9.172;2023-06-01T06:40:12;23.40;22.80
431;DHT22;202;48.764;9.172;2023-06-01T07:12:18;29.30;12.90
431;DHT22;202;48.764;9.172;2023-06-01T07:14:49;28.90;13.40
431;DHT22;202;48.764;9.172;2023-06-01T07:17:19;29.10;13.90
431;DHT22;202;48.764;9.172;2023-06-01T07:19:46;29.40;13.60
431;DHT22;202;48.764;9.172;2023-06-01T07:22:13;29.70;12.60
431;DHT22;202;48.764;9.172;2023-06-01T07:24:42;30.00;12.70
431;DHT22;202;48.764;9.172;2023-06-01T07:27:10;30.30;12.90
431;DHT22;202;48.764;9.172;2023-06-01T07:29:39;30.60;13.00
431;DHT22;202;48.764;9.172;2023-06-01T07:35:12;31.20;12.50
431;DHT22;202;48.764;9.172;2023-06-01T07:37:42;30.50;12.50
431;DHT22;202;48.764;9.172;2023-06-01T07:40:13;30.60;13.10
431;DHT22;202;48.764;9.172;2023-06-01T07:42:40;30.90;12.30
431;DHT22;202;48.764;9.172;2023-06-01T07:45:11;31.00;12.60
431;DHT22;202;48.764;9.172;2023-06-01T07:47:38;31.30;11.50
431;DHT22;202;48.764;9.172;2023-06-01T07:50:11;31.60;11.60
431;DHT22;202;48.764;9.172;2023-06-01T07:52:52;31.80;10.90
431;DHT22;202;48.764;9.172;2023-06-01T07:55:39;31.50;11.40
431;DHT22;202;48.764;9.172;2023-06-01T07:58:23;31.80;11.30
431;DHT22;202;48.764;9.172;2023-06-01T08:01:02;31.90;10.50
431;DHT22;202;48.764;9.172;2023-06-01T08:03:33;31.90;10.70
431;DHT22;202;48.764;9.172;2023-06-01T08:06:01;31.80;11.10
431;DHT22;202;48.764;9.172;2023-06-01T08:11:32;31.50;11.20
431;DHT22;202;48.764;9.172;2023-06-01T08:14:00;31.90;10.20
431;DHT22;202;48.764;9.172;2023-06-01T08:16:31;32.10;10.00
431;DHT22;202;48.764;9.172;2023-06-01T08:18:58;31.80;10.40
431;DHT22;202;48.764;9.172;2023-06-01T08:21:26;32.00;10.60
431;DHT22;202;48.764;9.172;2023-06-01T08:23:55;32.20;10.50
431;DHT22;202;48.764;9.172;2023-06-01T08:26:25;32.60;9.70
431;DHT22;202;48.764;9.172;2023-06-01T08:28:54;32.20;9.50
431;DHT22;202;48.764;9.172;2023-06-01T08:31:23;31.40;10.40
431;DHT22;202;48.764;9.172;2023-06-01T08:33:52;31.20;11.50
431;DHT22;202;48.764;9.172;2023-06-01T08:36:23;30.90;11.40
431;DHT22;202;48.764;9.172;2023-06-01T08:38:53;31.30;11.70
431;DHT22;202;48.764;9.172;2023-06-01T08:41:24;31.50;10.60
431;DHT22;202;48.764;9.172;2023-06-01T08:43:54;31.30;11.40
431;DHT22;202;48.764;9.172;2023-06-01T08:46:22;31.70;11.20
431;DHT22;202;48.764;9.172;2023-06-01T08:48:56;32.10;11.10
431;DHT22;202;48.764;9.172;2023-06-01T08:51:25;32.40;10.30
431;DHT22;202;48.764;9.172;2023-06-01T08:53:55;32.30;9.90
431;DHT22;202;48.764;9.172;2023-06-01T08:56:23;32.00;10.10
431;DHT22;202;48.764;9.172;2023-06-01T08:58:54;31.90;10.10
431;DHT22;202;48.764;9.172;2023-06-01T09:01:23;31.80;10.80
431;DHT22;202;48.764;9.172;2023-06-01T09:03:55;31.80;9.90
431;DHT22;202;48.764;9.172;2023-06-01T09:06:22;31.20;10.50
431;DHT22;202;48.764;9.172;2023-06-01T09:08:55;30.20;11.30
431;DHT22;202;48.764;9.172;2023-06-01T09:11:26;29.90;12.00
431;DHT22;202;48.764;9.172;2023-06-01T09:13:56;29.90;12.70
431;DHT22;202;48.764;9.172;2023-06-01T09:16:35;29.70;12.70
431;DHT22;202;48.764;9.172;2023-06-01T09:19:07;29.80;12.70
431;DHT22;202;48.764;9.172;2023-06-01T09:21:37;30.10;12.80
431;DHT22;202;48.764;9.172;2023-06-01T09:24:26;30.30;12.30
431;DHT22;202;48.764;9.172;2023-06-01T09:27:03;30.20;12.20
431;DHT22;202;48.764;9.172;2023-06-01T09:29:31;30.00;12.20
431;DHT22;202;48.764;9.172;2023-06-01T09:31:59;29.80;12.60
431;DHT22;202;48.764;9.172;2023-06-01T09:34:30;29.90;12.70
431;DHT22;202;48.764;9.172;2023-06-01T09:37:05;30.00;12.50
431;DHT22;202;48.764;9.172;2023-06-01T09:39:33;29.90;12.70
431;DHT22;202;48.764;9.172;2023-06-01T09:42:00;29.90;12.70
431;DHT22;202;48.764;9.172;2023-06-01T09:44:28;29.70;12.60
431;DHT22;202;48.764;9.172;2023-06-01T09:46:57;29.70;12.70
431;DHT22;202;48.764;9.172;2023-06-01T09:49:26;30.00;12.70
431;DHT22;202;48.764;9.172;2023-06-01T09:52:09;30.20;12.90
431;DHT22;202;48.764;9.172;2023-06-01T09:54:44;30.00;12.80
431;DHT22;202;48.764;9.172;2023-06-01T09:57:12;30.10;12.80
431;DHT22;202;48.764;9.172;2023-06-01T09:59:54;30.30;12.90
431;DHT22;202;48.764;9.172;2023-06-01T10:02:38;30.40;13.00
431;DHT22;202;48.764;9.172;2023-06-01T10:05:43;30.40;12.10
431;DHT22;202;48.764;9.172;2023-06-01T10:08:36;30.20;12.80
431;DHT22;202;48.764;9.172;2023-06-01T10:11:25;30.40;13.00
431;DHT22;202;48.764;9.172;2023-06-01T10:14:11;30.40;12.50
431;DHT22;202;48.764;9.172;2023-06-01T10:16:39;29.70;12.60
431;DHT22;202;48.764;9.172;2023-06-01T10:19:12;29.30;13.00
431;DHT22;202;48.764;9.172;2023-06-01T10:21:39;29.20;12.90
431;DHT22;202;48.764;9.172;2023-06-01T10:24:19;28.90;12.50
431;DHT22;202;48.764;9.172;2023-06-01T10:27:02;29.20;13.70
431;DHT22;202;48.764;9.172;2023-06-01T10:29:40;29.40;13.10
431;DHT22;202;48.764;9.172;2023-06-01T10:32:47;29.20;12.30
431;DHT22;202;48.764;9.172;2023-06-01T10:38:49;28.90;11.40
431;DHT22;202;48.764;9.172;2023-06-01T10:44:48;28.20;11.80
431;DHT22;202;48.764;9.172;2023-06-01T10:47:44;28.30;11.50
431;DHT22;202;48.764;9.172;2023-06-01T10:51:15;28.50;11.90
431;DHT22;202;48.764;9.172;2023-06-01T10:54:25;28.60;12.00
431;DHT22;202;48.764;9.172;2023-06-01T10:57:33;28.80;12.10
431;DHT22;202;48.764;9.172;2023-06-01T11:05:44;28.60;12.70
431;DHT22;202;48.764;9.172;2023-06-01T11:08:52;28.70;12.10
431;DHT22;202;48.764;9.172;2023-06-01T11:15:10;28.70;12.10
431;DHT22;202;48.764;9.172;2023-06-01T11:17:38;28.20;11.80
431;DHT22;202;48.764;9.172;2023-06-01T11:20:06;28.30;12.40
431;DHT22;202;48.764;9.172;2023-06-01T11:22:37;28.40;12.50
431;DHT22;202;48.764;9.172;2023-06-01T11:25:06;28.70;12.10
431;DHT22;202;48.764;9.172;2023-06-01T11:27:34;28.60;12.00
431;DHT22;202;48.764;9.172;2023-06-01T11:30:04;28.10;12.20
431;DHT22;202;48.764;9.172;2023-06-01T11:32:32;28.10;12.90
431;DHT22;202;48.764;9.172;2023-06-01T11:35:16;28.00;12.90
431;DHT22;202;48.764;9.172;2023-06-01T11:37:43;28.20;13.40
431;DHT22;202;48.764;9.172;2023-06-01T11:40:13;28.30;13.00
431;DHT22;202;48.764;9.172;2023-06-01T11:42:40;28.20;12.80
431;DHT22;202;48.764;9.172;2023-06-01T11:45:14;27.90;12.80
431;DHT22;202;48.764;9.172;2023-06-01T11:47:42;27.70;12.90
431;DHT22;202;48.764;9.172;2023-06-01T11:50:20;27.50;13.10
431;DHT22;202;48.764;9.172;2023-06-01T11:52:47;27.80;13.20
431;DHT22;202;48.764;9.172;2023-06-01T11:55:14;28.00;13.30
431;DHT22;202;48.764;9.172;2023-06-01T11:57:42;28.20;13.10
431;DHT22;202;48.764;9.172;2023-06-01T12:00:12;28.30;13.20
431;DHT22;202;48.764;9.172;2023-06-01T12:02:39;28.50;14.70
431;DHT22;202;48.764;9.172;2023-06-01T12:05:08;28.50;12.00
431;DHT22;202;48.764;9.172;2023-06-01T12:07:43;28.40;12.60
431;DHT22;202;48.764;9.172;2023-06-01T12:10:11;28.30;13.50
431;DHT22;202;48.764;9.172;2023-06-01T12:12:39;28.40;12.50
431;DHT22;202;48.764;9.172;2023-06-01T12:15:07;28.40;12.30
431;DHT22;202;48.764;9.172;2023-06-01T12:17:49;28.60;12.00
431;DHT22;202;48.764;9.172;2023-06-01T12:20:26;28.70;12.10
431;DHT22;202;48.764;9.172;2023-06-01T12:22:53;28.70;12.10
431;DHT22;202;48.764;9.172;2023-06-01T12:25:21;28.70;11.40
431;DHT22;202;48.764;9.172;2023-06-01T12:28:00;28.70;11.90
431;DHT22;202;48.764;9.172;2023-06-01T12:30:27;28.70;11.30
431;DHT22;202;48.764;9.172;2023-06-01T12:32:57;28.70;10.90
431;DHT22;202;48.764;9.172;2023-06-01T12:35:24;28.70;11.10
431;DHT22;202;48.764;9.172;2023-06-01T12:38:08;28.50;9.50
431;DHT22;202;48.764;9.172;2023-06-01T12:40:35;28.50;9.70
431;DHT22;202;48.764;9.172;2023-06-01T12:43:03;28.40;9.60
431;DHT22;202;48.764;9.172;2023-06-01T12:45:37;28.40;9.90
431;DHT22;202;48.764;9.172;2023-06-01T12:48:06;28.20;10.30
431;DHT22;202;48.764;9.172;2023-06-01T12:50:33;28.00;10.10
431;DHT22;202;48.764;9.172;2023-06-01T12:53:00;27.70;10.90
431;DHT22;202;48.764;9.172;2023-06-01T12:55:28;27.80;11.60
431;DHT22;202;48.764;9.172;2023-06-01T12:57:55;27.80;11.60
431;DHT22;202;48.764;9.172;2023-06-01T13:00:23;28.00;12.70
431;DHT22;202;48.764;9.172;2023-06-01T13:02:49;28.10;12.10
431;DHT22;202;48.764;9.172;2023-06-01T13:05:18;28.10;12.60
431;DHT22;202;48.764;9.172;2023-06-01T13:07:45;28.00;12.30
431;DHT22;202;48.764;9.172;2023-06-01T13:10:12;28.10;13.60
431;DHT22;202;48.764;9.172;2023-06-01T13:24:18;28.20;15.80
431;DHT22;202;48.764;9.172;2023-06-01T13:27:04;28.20;14.70
431;DHT22;202;48.764;9.172;2023-06-01T13:29:53;28.20;15.30
431;DHT22;202;48.764;9.172;2023-06-01T13:39:10;28.30;15.20
431;DHT22;202;48.764;9.172;2023-06-01T13:58:51;28.20;14.40
431;DHT22;202;48.764;9.172;2023-06-01T14:08:29;28.20;13.70
431;DHT22;202;48.764;9.172;2023-06-01T14:11:35;28.10;13.60
431;DHT22;202;48.764;9.172;2023-06-01T16:04:17;27.90;13.30
431;DHT22;202;48.764;9.172;2023-06-01T16:06:44;27.90;11.70
431;DHT22;202;48.764;9.172;2023-06-01T16:09:11;27.90;11.60
431;DHT22;202;48.764;9.172;2023-06-01T16:11:38;27.90;11.70
431;DHT22;202;48.764;9.172;2023-06-01T16:14:05;27.90;11.70
431;DHT22;202;48.764;9.172;2023-06-01T16:16:32;27.80;11.80
431;DHT22;202;48.764;9.172;2023-06-01T16:18:59;27.90;12.70
431;DHT22;202;48.764;9.172;2023-06-01T16:21:27;27.90;11.60
431;DHT22;202;48.764;9.172;2023-06-01T16:23:54;27.80;12.10
431;DHT22;202;48.764;9.172;2023-06-01T16:26:24;27.80;11.60
431;DHT22;202;48.764;9.172;2023-06-01T16:28:51;27.80;11.90
431;DHT22;202;48.764;9.172;2023-06-01T16:31:18;27.70;11.50
431;DHT22;202;48.764;9.172;2023-06-01T16:33:45;27.80;12.90
431;DHT22;202;48.764;9.172;2023-06-01T16:36:15;27.80;12.20
431;DHT22;202;48.764;9.172;2023-06-01T16:38:43;27.80;14.30
431;DHT22;202;48.764;9.172;2023-06-01T16:41:10;27.70;12.30
431;DHT22;202;48.764;9.172;2023-06-01T16:43:37;27.60;11.40
431;DHT22;202;48.764;9.172;2023-06-01T16:46:04;27.60;11.50
431;DHT22;202;48.764;9.172;2023-06-01T16:48:31;27.70;13.80
431;DHT22;202;48.764;9.172;2023-06-01T16:50:58;27.80;11.60
431;DHT22;202;48.764;9.172;2023-06-01T16:53:25;27.70;13.70
431;DHT22;202;48.764;9.172;2023-06-01T16:55:53;27.80;13.20
431;DHT22;202;48.764;9.172;2023-06-01T16:58:20;27.80;13.10
431;DHT22;202;48.764;9.172;2023-06-01T17:00:47;27.80;12.10
431;DHT22;202;48.764;9.172;2023-06-01T17:03:14;27.70;11.50
431;DHT22;202;48.764;9.172;2023-06-01T17:05:42;27.70;12.20
431;DHT22;202;48.764;9.172;2023-06-01T17:08:10;27.60;12.50
431;DHT22;202;48.764;9.172;2023-06-01T17:10:37;27.60;12.60
431;DHT22;202;48.764;9.172;2023-06-01T17:13:06;27.50;12.20
431;DHT22;202;48.764;9.172;2023-06-01T17:15:33;27.50;13.60
431;DHT22;202;48.764;9.172;2023-06-01T17:18:00;27.50;12.80
431;DHT22;202;48.764;9.172;2023-06-01T17:20:27;27.40;11.40
431;DHT22;202;48.764;9.172;2023-06-01T17:22:54;27.40;11.80
431;DHT22;202;48.764;9.172;2023-06-01T17:25:21;27.40;12.50
431;DHT22;202;48.764;9.172;2023-06-01T17:27:48;27.40;12.50
431;DHT22;202;48.764;9.172;2023-06-01T17:30:17;27.40;11.60
431;DHT22;202;48.764;9.172;2023-06-01T17:32:44;27.30;11.30
431;DHT22;202;48.764;9.172;2023-06-01T17:35:11;27.30;11.30
431;DHT22;202;48.764;9.172;2023-06-01T17:37:38;27.20;12.40
431;DHT22;202;48.764;9.172;2023-06-01T17:40:06;27.30;12.40
431;DHT22;202;48.764;9.172;2023-06-01T17:42:33;27.20;13.10
431;DHT22;202;48.764;9.172;2023-06-01T17:45:00;27.10;11.40
431;DHT22;202;48.764;9.172;2023-06-01T17:47:30;27.10;12.70
431;DHT22;202;48.764;9.172;2023-06-01T17:49:57;27.10;11.20
431;DHT22;202;48.764;9.172;2023-06-01T17:52:24;27.10;12.70
431;DHT22;202;48.764;9.172;2023-06-01T17:54:51;27.10;12.60
431;DHT22;202;48.764;9.172;2023-06-01T17:57:18;27.10;12.20
431;DHT22;202;48.764;9.172;2023-06-01T17:59:45;27.00;11.20
431;DHT22;202;48.764;9.172;2023-06-01T18:02:14;26.90;14.50
431;DHT22;202;48.764;9.172;2023-06-01T18:04:42;26.90;12.50
431;DHT22;202;48.764;9.172;2023-06-01T18:07:09;26.90;14.40
431;DHT22;202;48.764;9.172;2023-06-01T18:09:36;26.80;13.90
431;DHT22;202;48.764;9.172;2023-06-01T18:12:03;26.80;13.50
431;DHT22;202;48.764;9.172;2023-06-01T18:14:30;26.80;14.70
431;DHT22;202;48.764;9.172;2023-06-01T18:16:57;26.70;14.20
431;DHT22;202;48.764;9.172;2023-06-01T18:19:26;26.70;13.80
431;DHT22;202;48.764;9.172;2023-06-01T18:21:54;26.60;14.10
431;DHT22;202;48.764;9.172;2023-06-01T18:24:21;26.70;15.40
431;DHT22;202;48.764;9.172;2023-06-01T18:26:48;26.60;14.30
431;DHT22;202;48.764;9.172;2023-06-01T18:29:15;26.60;14.90
431;DHT22;202;48.764;9.172;2023-06-01T18:31:42;26.50;14.60
431;DHT22;202;48.764;9.172;2023-06-01T18:34:09;26.40;14.60
431;DHT22;202;48.764;9.172;2023-06-01T18:36:36;26.40;15.40
431;DHT22;202;48.764;9.172;2023-06-01T18:39:04;26.40;16.30
431;DHT22;202;48.764;9.172;2023-06-01T18:41:33;26.40;16.10
431;DHT22;202;48.764;9.172;2023-06-01T18:44:00;26.30;16.90
431;DHT22;202;48.764;9.172;2023-06-01T18:46:26;26.30;15.70
431;DHT22;202;48.764;9.172;2023-06-01T18:48:53;26.30;17.10
431;DHT22;202;48.764;9.172;2023-06-01T18:51:20;26.30;17.30
431;DHT22;202;48.764;9.172;2023-06-01T18:53:48;26.30;17.00
431;DHT22;202;48.764;9.172;2023-06-01T18:56:19;26.30;16.60
431;DHT22;202;48.764;9.172;2023-06-01T18:58:46;26.20;16.60
431;DHT22;202;48.764;9.172;2023-06-01T19:01:16;26.10;16.50
431;DHT22;202;48.764;9.172;2023-06-01T19:03:46;26.00;16.90
431;DHT22;202;48.764;9.172;2023-06-01T19:06:15;26.10;17.00
431;DHT22;202;48.764;9.172;2023-06-01T19:08:42;26.00;17.50
431;DHT22;202;48.764;9.172;2023-06-01T19:11:09;26.00;18.00
431;DHT22;202;48.764;9.172;2023-06-01T19:13:39;25.90;17.60
431;DHT22;202;48.764;9.172;2023-06-01T19:16:11;25.90;17.60
431;DHT22;202;48.764;9.172;2023-06-01T19:18:40;25.80;17.80
431;DHT22;202;48.764;9.172;2023-06-01T19:21:13;25.60;18.00
431;DHT22;202;48.764;9.172;2023-06-01T19:23:48;25.60;18.90
431;DHT22;202;48.764;9.172;2023-06-01T19:26:16;25.60;19.00
431;DHT22;202;48.764;9.172;2023-06-01T19:28:47;25.40;19.00
431;DHT22;202;48.764;9.172;2023-06-01T19:31:17;25.40;19.00
431;DHT22;202;48.764;9.172;2023-06-01T19:33:45;25.20;19.00
431;DHT22;202;48.764;9.172;2023-06-01T19:39:28;25.10;19.40
431;DHT22;202;48.764;9.172;2023-06-01T19:41:59;25.00;19.70
431;DHT22;202;48.764;9.172;2023-06-01T19:44:29;24.90;19.90
431;DHT22;202;48.764;9.172;2023-06-01T19:46:56;24.90;20.20
431;DHT22;202;48.764;9.172;2023-06-01T19:49:23;24.80;20.00
431;DHT22;202;48.764;9.172;2023-06-01T19:51:51;24.90;20.20
431;DHT22;202;48.764;9.172;2023-06-01T19:54:20;24.90;20.60
431;DHT22;202;48.764;9.172;2023-06-01T19:56:47;24.70;20.90
431;DHT22;202;48.764;9.172;2023-06-01T19:59:19;24.60;21.00
431;DHT22;202;48.764;9.172;2023-06-01T20:01:48;24.60;21.30
431;DHT22;202;48.764;9.172;2023-06-01T20:04:15;24.70;21.30
431;DHT22;202;48.764;9.172;2023-06-01T20:06:43;24.50;21.60
431;DHT22;202;48.764;9.172;2023-06-01T20:09:12;24.50;21.90
431;DHT22;202;48.764;9.172;2023-06-01T20:11:40;24.50;22.10
431;DHT22;202;48.764;9.172;2023-06-01T20:14:12;24.40;22.00
431;DHT22;202;48.764;9.172;2023-06-01T20:16:40;24.40;22.30
431;DHT22;202;48.764;9.172;2023-06-01T20:19:10;24.30;22.10
431;DHT22;202;48.764;9.172;2023-06-01T20:21:40;24.20;22.40
431;DHT22;202;48.764;9.172;2023-06-01T20:24:07;24.20;22.20
431;DHT22;202;48.764;9.172;2023-06-01T20:26:34;24.30;22.00
431;DHT22;202;48.764;9.172;2023-06-01T20:29:01;24.20;22.00
431;DHT22;202;48.764;9.172;2023-06-01T20:31:28;24.10;22.40
431;DHT22;202;48.764;9.172;2023-06-01T20:33:55;24.00;21.80
431;DHT22;202;48.764;9.172;2023-06-01T20:36:27;24.00;22.30
431;DHT22;202;48.764;9.172;2023-06-01T20:38:55;23.90;22.20
431;DHT22;202;48.764;9.172;2023-06-01T20:41:25;23.80;22.40
431;DHT22;202;48.764;9.172;2023-06-01T20:43:54;23.70;22.20
431;DHT22;202;48.764;9.172;2023-06-01T20:46:22;23.80;21.90
431;DHT22;202;48.764;9.172;2023-06-01T20:48:53;23.80;22.00